ADDS METAR Data INFO
IDs: Format: Raw Decoded Include TAF

Data at: 0040 UTC 23 Feb 2018

KPNS 222353Z 15007KT 8SM BKN005 21/19 A3032 RMK AO2 SLP269 T02110194 10256 20211 55000

KPNS 230020Z 2300/2324 15007KT P6SM BKN005
  FM230300 14002KT 2SM BR BKN005
  TEMPO 2308/2312 1/4SM FG VV002
  FM231500 12008KT 5SM BR BKN050